Time;durP1;ratioP1;P1;durP2;ratioP2;P2;SDS_P1;SDS_P2;PMS_P1;PMS_P2;Temp;Humidity;BMP_temperature;BMP_pressure;BME280_temperature;BME280_humidity;BME280_pressure;Samples;Min_cycle;Max_cycle;Signal;HPM_P1;HPM_P2
2021/07/11 00:00:47;;;;;;;0.00;0.00;;;;;;;;;;5022839;28;20213;-64
2021/07/11 00:03:13;;;;;;;0.00;0.00;;;;;;;;;;5022103;28;20228;-63
2021/07/11 00:05:41;;;;;;;0.00;0.00;;;;;;;;;;5036424;28;20335;-63
2021/07/11 00:08:07;;;;;;;0.00;0.00;;;;;;;;;;5032556;28;20252;-63
2021/07/11 00:10:34;;;;;;;0.10;0.10;;;;;;;;;;5025175;28;20209;-64
2021/07/11 00:13:00;;;;;;;0.05;0.05;;;;;;;;;;5022356;28;20212;-63
2021/07/11 00:15:27;;;;;;;0.10;0.10;;;;;;;;;;5036014;28;20215;-64
2021/07/11 00:17:53;;;;;;;0.00;0.00;;;;;;;;;;5028770;28;20457;-63
2021/07/11 00:20:20;;;;;;;0.00;0.00;;;;;;;;;;5029295;28;20235;-63
2021/07/11 00:22:47;;;;;;;0.00;0.00;;;;;;;;;;5040605;28;20321;-63
2021/07/11 00:25:14;;;;;;;0.00;0.00;;;;;;;;;;5041763;28;20227;-63
2021/07/11 00:27:40;;;;;;;0.00;0.00;;;;;;;;;;5042055;28;20482;-63
2021/07/11 00:30:07;;;;;;;0.00;0.00;;;;;;;;;;5041902;28;20203;-63
2021/07/11 00:32:34;;;;;;;0.00;0.00;;;;;;;;;;5032745;28;20301;-63
2021/07/11 00:35:00;;;;;;;0.10;0.10;;;;;;;;;;5021857;28;20205;-63
2021/07/11 00:37:26;;;;;;;0.05;0.05;;;;;;;;;;5022025;28;20213;-63
2021/07/11 00:39:54;;;;;;;0.00;0.00;;;;;;;;;;5036975;28;20265;-64
2021/07/11 00:42:20;;;;;;;0.00;0.00;;;;;;;;;;5041576;28;20251;-63
2021/07/11 00:44:46;;;;;;;0.00;0.00;;;;;;;;;;5027447;28;20209;-64
2021/07/11 00:47:13;;;;;;;0.10;0.10;;;;;;;;;;5027694;28;20209;-63
2021/07/11 00:49:42;;;;;;;0.00;0.00;;;;;;;;;;5041250;28;20209;-65
2021/07/11 00:52:08;;;;;;;0.03;0.03;;;;;;;;;;5036499;28;20319;-64
2021/07/11 00:54:35;;;;;;;0.00;0.00;;;;;;;;;;5021807;28;20232;-63
2021/07/11 00:57:03;;;;;;;0.00;0.00;;;;;;;;;;5024008;28;20254;-63
2021/07/11 00:59:29;;;;;;;0.00;0.00;;;;;;;;;;5031780;28;20241;-64
2021/07/11 01:01:58;;;;;;;0.10;0.10;;;;;;;;;;5035559;28;20277;-63
2021/07/11 01:04:27;;;;;;;0.00;0.00;;;;;;;;;;5021276;28;20252;-63
2021/07/11 01:06:55;;;;;;;0.00;0.00;;;;;;;;;;5020814;28;20392;-65
2021/07/11 01:09:24;;;;;;;0.00;0.00;;;;;;;;;;5027896;28;20497;-63
2021/07/11 01:11:53;;;;;;;0.00;0.00;;;;;;;;;;5041375;28;20276;-63
2021/07/11 01:14:21;;;;;;;0.00;0.00;;;;;;;;;;5022295;28;20205;-63
2021/07/11 01:16:48;;;;;;;0.00;0.00;;;;;;;;;;5021578;28;20218;-63
2021/07/11 01:19:20;;;;;;;0.00;0.00;;;;;;;;;;5034400;28;20268;-63
2021/07/11 01:21:51;;;;;;;0.00;0.00;;;;;;;;;;5031721;28;20531;-63
2021/07/11 01:24:20;;;;;;;0.00;0.00;;;;;;;;;;5023460;28;20291;-63
2021/07/11 01:26:48;;;;;;;0.00;0.00;;;;;;;;;;5030380;28;20207;-63
2021/07/11 01:29:18;;;;;;;0.00;0.00;;;;;;;;;;5027017;28;20220;-63
2021/07/11 01:31:45;;;;;;;0.00;0.00;;;;;;;;;;5031625;28;20204;-63
2021/07/11 01:34:11;;;;;;;0.00;0.00;;;;;;;;;;5020997;28;20210;-63
2021/07/11 01:36:38;;;;;;;0.03;0.03;;;;;;;;;;5027906;28;20232;-63
2021/07/11 01:39:04;;;;;;;0.00;0.00;;;;;;;;;;5027664;28;20230;-63
2021/07/11 01:41:31;;;;;;;0.00;0.00;;;;;;;;;;5021214;28;20210;-63
2021/07/11 01:43:58;;;;;;;0.00;0.00;;;;;;;;;;5020935;28;20214;-63
2021/07/11 01:46:25;;;;;;;0.00;0.00;;;;;;;;;;5020780;28;20255;-63
2021/07/11 01:48:51;;;;;;;0.00;0.00;;;;;;;;;;5020699;28;20209;-64
2021/07/11 01:51:19;;;;;;;0.00;0.00;;;;;;;;;;5020785;28;20207;-64
2021/07/11 01:53:47;;;;;;;0.00;0.00;;;;;;;;;;5038260;28;20252;-65
2021/07/11 01:56:13;;;;;;;0.08;0.08;;;;;;;;;;5040602;28;20496;-64
2021/07/11 01:58:40;;;;;;;0.00;0.00;;;;;;;;;;5037596;28;20230;-64
2021/07/11 02:01:09;;;;;;;0.00;0.00;;;;;;;;;;5025007;28;20531;-64
2021/07/11 02:03:36;;;;;;;0.00;0.00;;;;;;;;;;5024837;27;20235;-65
2021/07/11 02:06:03;;;;;;;0.00;0.00;;;;;;;;;;5029923;28;20256;-64
2021/07/11 02:08:29;;;;;;;0.00;0.00;;;;;;;;;;5038262;28;20251;-65
2021/07/11 02:10:56;;;;;;;0.00;0.00;;;;;;;;;;5036038;28;20554;-63
2021/07/11 02:13:25;;;;;;;0.00;0.00;;;;;;;;;;5037809;28;20206;-64
2021/07/11 02:15:53;;;;;;;0.00;0.00;;;;;;;;;;5025051;28;20205;-64
2021/07/11 02:18:24;;;;;;;0.00;0.00;;;;;;;;;;5028776;28;20222;-64
2021/07/11 02:20:51;;;;;;;0.00;0.00;;;;;;;;;;5031849;28;20274;-64
2021/07/11 02:23:18;;;;;;;0.00;0.00;;;;;;;;;;5039994;28;20205;-63
2021/07/11 02:25:45;;;;;;;0.00;0.00;;;;;;;;;;5021554;28;20232;-64
2021/07/11 02:28:11;;;;;;;0.00;0.00;;;;;;;;;;5020087;28;20237;-64
2021/07/11 02:30:50;;;;;;;0.00;0.00;;;;;;;;;;5020208;28;20510;-64
2021/07/11 02:33:17;;;;;;;0.00;0.00;;;;;;;;;;5020306;28;20276;-64
2021/07/11 02:35:46;;;;;;;0.00;0.00;;;;;;;;;;5019516;28;20208;-63
2021/07/11 02:38:13;;;;;;;0.08;0.08;;;;;;;;;;5019818;28;20232;-63
2021/07/11 02:40:40;;;;;;;0.00;0.00;;;;;;;;;;5027565;28;20503;-64
2021/07/11 02:43:07;;;;;;;0.00;0.00;;;;;;;;;;5039898;28;20490;-64
2021/07/11 02:45:34;;;;;;;0.08;0.08;;;;;;;;;;5020066;28;20248;-63
2021/07/11 02:48:01;;;;;;;0.00;0.00;;;;;;;;;;5020199;28;20492;-63
2021/07/11 02:50:28;;;;;;;0.10;0.10;;;;;;;;;;5024025;28;20277;-65
2021/07/11 02:52:56;;;;;;;0.00;0.00;;;;;;;;;;5029849;28;20462;-65
2021/07/11 02:55:25;;;;;;;0.00;0.00;;;;;;;;;;5022334;28;20215;-64
2021/07/11 02:57:52;;;;;;;0.00;0.00;;;;;;;;;;5030748;28;20232;-64
2021/07/11 03:00:18;;;;;;;0.00;0.00;;;;;;;;;;5020600;28;20273;-64
2021/07/11 03:02:45;;;;;;;0.00;0.00;;;;;;;;;;5023411;28;20492;-64
2021/07/11 03:05:12;;;;;;;0.00;0.00;;;;;;;;;;5019338;28;20212;-64
2021/07/11 03:07:38;;;;;;;0.00;0.00;;;;;;;;;;5024927;28;20204;-64
2021/07/11 03:10:06;;;;;;;0.10;0.10;;;;;;;;;;5028465;28;20417;-64
2021/07/11 03:12:33;;;;;;;0.00;0.00;;;;;;;;;;5019975;28;20211;-64
2021/07/11 03:15:00;;;;;;;0.00;0.00;;;;;;;;;;5029583;28;20400;-65
2021/07/11 03:17:27;;;;;;;0.05;0.05;;;;;;;;;;5037303;28;20204;-65
2021/07/11 03:19:54;;;;;;;0.00;0.00;;;;;;;;;;5019105;28;20240;-62
2021/07/11 03:22:22;;;;;;;0.00;0.00;;;;;;;;;;5033457;28;20488;-65
2021/07/11 03:24:50;;;;;;;0.10;0.10;;;;;;;;;;5018926;28;20232;-65
2021/07/11 03:27:18;;;;;;;0.00;0.00;;;;;;;;;;5031061;28;20317;-63
2021/07/11 03:29:52;;;;;;;0.00;0.00;;;;;;;;;;5021097;28;20257;-63
2021/07/11 03:32:19;;;;;;;0.10;0.10;;;;;;;;;;5022862;28;20204;-63
2021/07/11 03:34:46;;;;;;;0.10;0.10;;;;;;;;;;5022584;28;20209;-63
2021/07/11 03:37:13;;;;;;;0.00;0.00;;;;;;;;;;5023352;28;20270;-63
2021/07/11 03:39:42;;;;;;;0.10;0.10;;;;;;;;;;5036658;28;20439;-63
2021/07/11 03:42:09;;;;;;;0.00;0.00;;;;;;;;;;5022480;28;20215;-63
2021/07/11 03:44:38;;;;;;;0.00;0.00;;;;;;;;;;5022763;28;20541;-63
2021/07/11 03:47:06;;;;;;;0.08;0.08;;;;;;;;;;5029506;28;20230;-63
2021/07/11 03:49:32;;;;;;;0.00;0.00;;;;;;;;;;5029635;28;20245;-63
2021/07/11 03:52:01;;;;;;;0.00;0.00;;;;;;;;;;5036584;28;20498;-63
2021/07/11 03:54:27;;;;;;;0.00;0.00;;;;;;;;;;5022541;28;20513;-63
2021/07/11 03:56:54;;;;;;;0.00;0.00;;;;;;;;;;5036062;28;20225;-63
2021/07/11 03:59:22;;;;;;;0.00;0.00;;;;;;;;;;5022333;28;20220;-63
2021/07/11 04:01:50;;;;;;;0.00;0.00;;;;;;;;;;5024480;28;20223;-63
2021/07/11 04:04:18;;;;;;;0.00;0.00;;;;;;;;;;5032850;28;20270;-63
2021/07/11 04:06:46;;;;;;;0.00;0.00;;;;;;;;;;5036624;28;20242;-63
2021/07/11 04:09:12;;;;;;;0.03;0.03;;;;;;;;;;5029190;28;20236;-63
2021/07/11 04:11:38;;;;;;;0.00;0.00;;;;;;;;;;5029299;28;20260;-63
2021/07/11 04:14:05;;;;;;;0.00;0.00;;;;;;;;;;5022474;28;20283;-63
2021/07/11 04:16:32;;;;;;;0.10;0.10;;;;;;;;;;5022228;28;20397;-63
2021/07/11 04:19:01;;;;;;;0.10;0.10;;;;;;;;;;5035987;28;20223;-63
2021/07/11 04:21:28;;;;;;;0.03;0.03;;;;;;;;;;5022320;28;20213;-63
2021/07/11 04:23:57;;;;;;;0.00;0.00;;;;;;;;;;5038331;28;20540;-63
2021/07/11 04:26:24;;;;;;;0.00;0.00;;;;;;;;;;5033446;28;20223;-63
2021/07/11 04:28:50;;;;;;;0.05;0.05;;;;;;;;;;5032931;28;20225;-63
2021/07/11 04:31:18;;;;;;;0.00;0.00;;;;;;;;;;5025034;27;20213;-63
2021/07/11 04:33:45;;;;;;;0.00;0.00;;;;;;;;;;5021754;28;20224;-63
2021/07/11 04:36:13;;;;;;;0.10;0.10;;;;;;;;;;5037004;28;20485;-63
2021/07/11 04:38:40;;;;;;;0.00;0.00;;;;;;;;;;5041828;28;20208;-63
2021/07/11 04:41:07;;;;;;;0.10;0.10;;;;;;;;;;5031344;28;20225;-63
2021/07/11 04:43:33;;;;;;;0.00;0.00;;;;;;;;;;5021555;28;20399;-63
2021/07/11 04:46:00;;;;;;;0.00;0.00;;;;;;;;;;5022115;28;20412;-63
2021/07/11 04:48:26;;;;;;;0.10;0.10;;;;;;;;;;5021872;28;20383;-63
2021/07/11 04:50:53;;;;;;;0.03;0.03;;;;;;;;;;5021536;28;20196;-63
2021/07/11 04:53:20;;;;;;;0.00;0.00;;;;;;;;;;5021386;28;20489;-63
2021/07/11 04:55:48;;;;;;;0.10;0.10;;;;;;;;;;5030212;28;20423;-63
2021/07/11 04:58:14;;;;;;;0.00;0.00;;;;;;;;;;5026713;28;20269;-63
2021/07/11 05:00:41;;;;;;;0.00;0.00;;;;;;;;;;5028288;28;20220;-63
2021/07/11 05:03:07;;;;;;;0.10;0.10;;;;;;;;;;5028488;28;20208;-63
2021/07/11 05:05:35;;;;;;;0.00;0.00;;;;;;;;;;5021510;28;20241;-63
2021/07/11 05:08:01;;;;;;;0.05;0.05;;;;;;;;;;5021657;28;20232;-62
2021/07/11 05:10:29;;;;;;;0.00;0.00;;;;;;;;;;5035685;28;20204;-63
2021/07/11 05:12:55;;;;;;;0.00;0.00;;;;;;;;;;5030906;28;20284;-63
2021/07/11 05:15:21;;;;;;;0.10;0.10;;;;;;;;;;5025581;28;20220;-64
2021/07/11 05:17:47;;;;;;;0.10;0.10;;;;;;;;;;5021860;28;20203;-63
2021/07/11 05:20:14;;;;;;;0.10;0.10;;;;;;;;;;5021536;28;20235;-63
2021/07/11 05:22:40;;;;;;;0.00;0.00;;;;;;;;;;5021003;28;20208;-63
2021/07/11 05:25:07;;;;;;;0.00;0.00;;;;;;;;;;5033255;28;20289;-63
2021/07/11 05:27:35;;;;;;;0.03;0.03;;;;;;;;;;5037007;28;20504;-63
2021/07/11 05:30:01;;;;;;;0.00;0.00;;;;;;;;;;5021147;28;20199;-63
2021/07/11 05:32:28;;;;;;;0.00;0.00;;;;;;;;;;5025762;28;20206;-63
2021/07/11 05:34:54;;;;;;;0.10;0.10;;;;;;;;;;5020885;28;20208;-64
2021/07/11 05:37:21;;;;;;;0.00;0.00;;;;;;;;;;5021374;28;20262;-63
2021/07/11 05:39:47;;;;;;;0.00;0.00;;;;;;;;;;5020622;28;20237;-63
2021/07/11 05:42:13;;;;;;;0.00;0.00;;;;;;;;;;5020999;28;20207;-63
2021/07/11 05:44:41;;;;;;;0.00;0.00;;;;;;;;;;5034545;28;20519;-62
2021/07/11 05:47:08;;;;;;;0.10;0.10;;;;;;;;;;5021024;28;20211;-63
2021/07/11 05:49:34;;;;;;;0.10;0.10;;;;;;;;;;5020920;28;20203;-63
2021/07/11 05:52:01;;;;;;;0.10;0.10;;;;;;;;;;5020329;28;20216;-63
2021/07/11 05:54:28;;;;;;;0.00;0.00;;;;;;;;;;5020521;28;20237;-63
2021/07/11 05:56:54;;;;;;;0.00;0.00;;;;;;;;;;5024379;28;20216;-63
2021/07/11 05:59:20;;;;;;;0.10;0.10;;;;;;;;;;5040435;28;20214;-63
2021/07/11 06:01:48;;;;;;;0.10;0.10;;;;;;;;;;5024375;28;20281;-63
2021/07/11 06:04:14;;;;;;;0.03;0.03;;;;;;;;;;5020527;28;20210;-63
2021/07/11 06:06:40;;;;;;;0.00;0.00;;;;;;;;;;5020752;28;20253;-63
2021/07/11 06:09:07;;;;;;;0.00;0.00;;;;;;;;;;5040432;28;20366;-63
2021/07/11 06:11:33;;;;;;;0.00;0.00;;;;;;;;;;5028600;28;20207;-65
2021/07/11 06:13:59;;;;;;;0.00;0.00;;;;;;;;;;5020347;28;20253;-65
2021/07/11 06:16:25;;;;;;;0.08;0.08;;;;;;;;;;5020774;28;20317;-65
2021/07/11 06:18:53;;;;;;;0.00;0.00;;;;;;;;;;5020265;28;20209;-62
2021/07/11 06:21:19;;;;;;;0.00;0.00;;;;;;;;;;5024052;28;20241;-63
2021/07/11 06:23:47;;;;;;;0.05;0.05;;;;;;;;;;5033885;28;20205;-63
2021/07/11 06:26:14;;;;;;;0.00;0.00;;;;;;;;;;5024205;28;20222;-63
2021/07/11 06:28:40;;;;;;;0.00;0.00;;;;;;;;;;5020413;28;20211;-63
2021/07/11 06:31:06;;;;;;;0.00;0.00;;;;;;;;;;5020276;28;20306;-63
2021/07/11 06:33:32;;;;;;;0.00;0.00;;;;;;;;;;5020013;28;20260;-63
2021/07/11 06:36:00;;;;;;;0.00;0.00;;;;;;;;;;5020344;28;20388;-64
2021/07/11 06:38:26;;;;;;;0.00;0.00;;;;;;;;;;5034102;28;20276;-64
2021/07/11 06:40:52;;;;;;;0.10;0.10;;;;;;;;;;5019780;28;20227;-63
2021/07/11 06:43:19;;;;;;;0.00;0.00;;;;;;;;;;5034017;28;20202;-64
2021/07/11 06:45:45;;;;;;;0.08;0.08;;;;;;;;;;5020089;28;20342;-64
2021/07/11 06:48:11;;;;;;;0.10;0.10;;;;;;;;;;5019622;28;20495;-64
2021/07/11 06:50:40;;;;;;;0.10;0.10;;;;;;;;;;5020101;28;20203;-64
2021/07/11 06:53:08;;;;;;;0.10;0.10;;;;;;;;;;5019546;28;20364;-64
2021/07/11 06:55:34;;;;;;;0.00;0.00;;;;;;;;;;5026540;28;20405;-63
2021/07/11 06:58:00;;;;;;;0.05;0.05;;;;;;;;;;5026388;28;20217;-66
2021/07/11 07:00:26;;;;;;;0.00;0.00;;;;;;;;;;5033655;28;20307;-64
2021/07/11 07:02:53;;;;;;;0.00;0.00;;;;;;;;;;5030675;28;20205;-64
2021/07/11 07:05:21;;;;;;;0.10;0.10;;;;;;;;;;5037623;28;20374;-63
2021/07/11 07:07:47;;;;;;;0.10;0.10;;;;;;;;;;5024785;28;20400;-63
2021/07/11 07:10:15;;;;;;;0.00;0.00;;;;;;;;;;5022567;28;20291;-62
2021/07/11 07:12:42;;;;;;;0.00;0.00;;;;;;;;;;5021437;28;20246;-64
2021/07/11 07:15:09;;;;;;;0.05;0.05;;;;;;;;;;5022125;28;20291;-64
2021/07/11 07:17:35;;;;;;;0.00;0.00;;;;;;;;;;5022110;28;20203;-63
2021/07/11 07:20:02;;;;;;;0.00;0.00;;;;;;;;;;5026540;28;20273;-63
2021/07/11 07:22:28;;;;;;;0.00;0.00;;;;;;;;;;5025394;28;20497;-63
2021/07/11 07:24:54;;;;;;;0.00;0.00;;;;;;;;;;5022417;28;20232;-63
2021/07/11 07:27:22;;;;;;;0.08;0.08;;;;;;;;;;5025793;27;20205;-63
2021/07/11 07:29:49;;;;;;;0.00;0.00;;;;;;;;;;5019270;28;20203;-63
2021/07/11 07:32:15;;;;;;;0.00;0.00;;;;;;;;;;5024007;28;20273;-63
2021/07/11 07:34:41;;;;;;;0.00;0.00;;;;;;;;;;5019460;28;20204;-64
2021/07/11 07:37:08;;;;;;;0.00;0.00;;;;;;;;;;5036618;28;20206;-62
2021/07/11 07:39:34;;;;;;;0.00;0.00;;;;;;;;;;5026527;28;20490;-64
2021/07/11 07:42:00;;;;;;;0.00;0.00;;;;;;;;;;5021720;28;20208;-64
2021/07/11 07:44:28;;;;;;;0.30;0.30;;;;;;;;;;5023401;28;20204;-65
2021/07/11 07:46:54;;;;;;;0.00;0.00;;;;;;;;;;5038012;28;20221;-68
2021/07/11 07:49:20;;;;;;;0.00;0.00;;;;;;;;;;5030683;28;20280;-66
2021/07/11 07:51:47;;;;;;;0.00;0.00;;;;;;;;;;5022379;28;20204;-63
2021/07/11 07:54:13;;;;;;;0.00;0.00;;;;;;;;;;5034475;28;20215;-65
2021/07/11 07:56:39;;;;;;;0.10;0.10;;;;;;;;;;5024758;28;20220;-62
2021/07/11 07:59:06;;;;;;;0.00;0.00;;;;;;;;;;5021790;28;20199;-63
2021/07/11 08:01:33;;;;;;;0.00;0.00;;;;;;;;;;5020214;28;20407;-63
2021/07/11 08:04:03;;;;;;;0.00;0.00;;;;;;;;;;5023999;28;20246;-63
2021/07/11 08:06:29;;;;;;;0.00;0.00;;;;;;;;;;5020550;28;20205;-63
2021/07/11 08:08:55;;;;;;;0.00;0.00;;;;;;;;;;5020387;28;20209;-63
2021/07/11 08:11:22;;;;;;;0.10;0.10;;;;;;;;;;5021944;28;20219;-63
2021/07/11 08:13:48;;;;;;;0.00;0.00;;;;;;;;;;5019227;28;20257;-64
2021/07/11 08:16:14;;;;;;;0.10;0.10;;;;;;;;;;5035934;28;20374;-64
2021/07/11 08:18:42;;;;;;;0.00;0.00;;;;;;;;;;5041361;28;20219;-63
2021/07/11 08:21:08;;;;;;;0.45;0.45;;;;;;;;;;5027065;28;20412;-63
2021/07/11 08:23:34;;;;;;;0.00;0.00;;;;;;;;;;5032580;28;20208;-62
2021/07/11 08:26:01;;;;;;;0.00;0.00;;;;;;;;;;5034170;28;20233;-63
2021/07/11 08:28:27;;;;;;;0.00;0.00;;;;;;;;;;5022136;28;20301;-63
2021/07/11 08:30:54;;;;;;;0.03;0.03;;;;;;;;;;5035870;28;20209;-63
2021/07/11 08:33:20;;;;;;;0.30;0.30;;;;;;;;;;5036250;28;20276;-63
2021/07/11 08:35:47;;;;;;;0.00;0.00;;;;;;;;;;5022099;28;20208;-65
2021/07/11 08:38:14;;;;;;;0.00;0.00;;;;;;;;;;5036013;28;20208;-63
2021/07/11 08:40:40;;;;;;;0.00;0.00;;;;;;;;;;5021641;28;20301;-63
2021/07/11 08:43:07;;;;;;;0.00;0.00;;;;;;;;;;5036006;28;20552;-64
2021/07/11 08:45:34;;;;;;;0.00;0.00;;;;;;;;;;5021732;28;20217;-63
2021/07/11 08:48:00;;;;;;;0.00;0.00;;;;;;;;;;5036254;28;20205;-64
2021/07/11 08:50:26;;;;;;;0.00;0.00;;;;;;;;;;5041205;28;20259;-64
2021/07/11 08:52:55;;;;;;;0.00;0.00;;;;;;;;;;5029249;28;20250;-64
2021/07/11 08:55:22;;;;;;;0.00;0.00;;;;;;;;;;5026722;28;20246;-64
2021/07/11 08:57:50;;;;;;;0.00;0.00;;;;;;;;;;5030232;28;20214;-64
2021/07/11 09:00:17;;;;;;;0.03;0.03;;;;;;;;;;5035514;28;20233;-64
2021/07/11 09:02:43;;;;;;;0.00;0.00;;;;;;;;;;5031234;28;20284;-64
2021/07/11 09:05:20;;;;;;;0.00;0.00;;;;;;;;;;5039740;28;20297;-63
2021/07/11 09:07:57;;;;;;;0.00;0.00;;;;;;;;;;5021555;28;20505;-64
2021/07/11 09:10:28;;;;;;;0.00;0.00;;;;;;;;;;5024555;28;21381;-64
2021/07/11 09:12:54;;;;;;;0.00;0.00;;;;;;;;;;5041313;28;20205;-63
2021/07/11 09:15:28;;;;;;;0.00;0.00;;;;;;;;;;5039574;28;20205;-64
2021/07/11 09:17:55;;;;;;;0.00;0.00;;;;;;;;;;5021327;28;20243;-64
2021/07/11 09:20:22;;;;;;;0.00;0.00;;;;;;;;;;5022099;28;20283;-64
2021/07/11 09:22:57;;;;;;;0.00;0.00;;;;;;;;;;5034413;28;20202;-64
2021/07/11 09:25:23;;;;;;;0.00;0.00;;;;;;;;;;5021290;28;20528;-64
2021/07/11 09:27:49;;;;;;;0.00;0.00;;;;;;;;;;5036729;28;20209;-63
2021/07/11 09:30:17;;;;;;;0.00;0.00;;;;;;;;;;5032730;28;20201;-63
2021/07/11 09:32:44;;;;;;;0.05;0.05;;;;;;;;;;5021108;28;20205;-64
2021/07/11 09:35:11;;;;;;;0.00;0.00;;;;;;;;;;5021006;28;20360;-63
2021/07/11 09:37:39;;;;;;;0.00;0.00;;;;;;;;;;5034111;28;20205;-63
2021/07/11 09:40:07;;;;;;;0.00;0.00;;;;;;;;;;5021216;28;20205;-64
2021/07/11 09:42:35;;;;;;;0.00;0.00;;;;;;;;;;5032057;28;20261;-63
2021/07/11 09:45:03;;;;;;;0.00;0.00;;;;;;;;;;5022638;28;20205;-63
2021/07/11 09:47:32;;;;;;;0.00;0.00;;;;;;;;;;5020889;28;20247;-63
2021/07/11 09:50:04;;;;;;;0.00;0.00;;;;;;;;;;5020554;28;20420;-63
2021/07/11 09:52:32;;;;;;;0.05;0.05;;;;;;;;;;5020661;28;20206;-63
2021/07/11 09:54:59;;;;;;;0.10;0.10;;;;;;;;;;5022541;28;20232;-63
2021/07/11 09:57:33;;;;;;;0.00;0.00;;;;;;;;;;5032381;28;20546;-63
2021/07/11 10:00:00;;;;;;;0.00;0.00;;;;;;;;;;5020577;28;20212;-64
2021/07/11 10:02:27;;;;;;;0.10;0.10;;;;;;;;;;5020937;28;20259;-63
2021/07/11 10:04:53;;;;;;;0.00;0.00;;;;;;;;;;5020935;28;20206;-64
2021/07/11 10:07:19;;;;;;;0.00;0.00;;;;;;;;;;5034227;28;20228;-63
2021/07/11 10:09:45;;;;;;;0.00;0.00;;;;;;;;;;5020827;28;20205;-63
2021/07/11 10:12:12;;;;;;;0.00;0.00;;;;;;;;;;5034179;28;20215;-64
2021/07/11 10:14:40;;;;;;;0.00;0.00;;;;;;;;;;5020303;28;20224;-63
2021/07/11 10:17:06;;;;;;;0.00;0.00;;;;;;;;;;5034978;28;20269;-63
2021/07/11 10:19:33;;;;;;;0.00;0.00;;;;;;;;;;5020469;28;20201;-63
2021/07/11 10:22:10;;;;;;;0.00;0.00;;;;;;;;;;5034238;28;20262;-62
2021/07/11 10:24:40;;;;;;;0.00;0.00;;;;;;;;;;5032667;28;20495;-62
2021/07/11 10:27:16;;;;;;;0.00;0.00;;;;;;;;;;5023870;28;20288;-64
2021/07/11 10:29:45;;;;;;;0.00;0.00;;;;;;;;;;5026232;28;20503;-64
2021/07/11 10:32:20;;;;;;;0.00;0.00;;;;;;;;;;5030286;28;20205;-62
2021/07/11 10:34:47;;;;;;;0.00;0.00;;;;;;;;;;5022397;28;20225;-62
2021/07/11 10:37:13;;;;;;;0.10;0.10;;;;;;;;;;5020652;28;20418;-62
2021/07/11 10:39:40;;;;;;;0.00;0.00;;;;;;;;;;5033043;28;20267;-62
2021/07/11 10:42:08;;;;;;;0.00;0.00;;;;;;;;;;5019857;28;20233;-62
2021/07/11 10:44:34;;;;;;;0.00;0.00;;;;;;;;;;5020090;28;20365;-63
2021/07/11 10:47:03;;;;;;;0.00;0.00;;;;;;;;;;5020173;28;20390;-63
2021/07/11 10:49:31;;;;;;;0.08;0.08;;;;;;;;;;5019749;28;20214;-63
2021/07/11 10:51:58;;;;;;;0.08;0.08;;;;;;;;;;5038476;28;20388;-63
2021/07/11 10:54:27;;;;;;;0.00;0.00;;;;;;;;;;5039548;28;20388;-63
2021/07/11 10:56:54;;;;;;;0.00;0.00;;;;;;;;;;5021897;28;20437;-62
2021/07/11 10:59:28;;;;;;;0.00;0.00;;;;;;;;;;5020211;28;20209;-63
2021/07/11 11:01:55;;;;;;;0.00;0.00;;;;;;;;;;5022760;28;20381;-64
2021/07/11 11:04:23;;;;;;;0.00;0.00;;;;;;;;;;5030423;28;20489;-63
2021/07/11 11:06:50;;;;;;;0.00;0.00;;;;;;;;;;5035310;28;20225;-63
2021/07/11 11:09:40;;;;;;;0.00;0.00;;;;;;;;;;5031941;28;20206;-63
2021/07/11 11:12:19;;;;;;;0.00;0.00;;;;;;;;;;5029562;28;20213;-63
2021/07/11 11:15:06;;;;;;;0.00;0.00;;;;;;;;;;5019674;28;20237;-63
2021/07/11 11:17:33;;;;;;;0.00;0.00;;;;;;;;;;5036521;28;20248;-63
2021/07/11 11:20:02;;;;;;;0.00;0.00;;;;;;;;;;5020409;28;20243;-63
2021/07/11 11:22:28;;;;;;;0.00;0.00;;;;;;;;;;5038065;28;20269;-63
2021/07/11 11:24:54;;;;;;;0.00;0.00;;;;;;;;;;5029425;28;20366;-63
2021/07/11 11:27:35;;;;;;;0.00;0.00;;;;;;;;;;5019636;28;20224;-63
2021/07/11 11:30:08;;;;;;;0.00;0.00;;;;;;;;;;5019711;28;20210;-63
2021/07/11 11:32:34;;;;;;;0.00;0.00;;;;;;;;;;5019500;28;20250;-62
2021/07/11 11:35:02;;;;;;;0.00;0.00;;;;;;;;;;5038852;28;20208;-63
2021/07/11 11:37:31;;;;;;;0.00;0.00;;;;;;;;;;5027871;28;20384;-63
2021/07/11 11:40:01;;;;;;;0.00;0.00;;;;;;;;;;5033489;28;20264;-63
2021/07/11 11:42:27;;;;;;;0.00;0.00;;;;;;;;;;5019568;28;20225;-63
2021/07/11 11:45:03;;;;;;;0.00;0.00;;;;;;;;;;5033236;28;20214;-64
2021/07/11 11:47:29;;;;;;;0.00;0.00;;;;;;;;;;5029507;28;20204;-63
2021/07/11 11:49:55;;;;;;;0.00;0.00;;;;;;;;;;5023210;28;20216;-64
2021/07/11 11:52:23;;;;;;;0.17;0.17;;;;;;;;;;5033956;28;20211;-63
2021/07/11 11:54:49;;;;;;;0.00;0.00;;;;;;;;;;5032185;28;20205;-63
2021/07/11 11:57:15;;;;;;;0.00;0.00;;;;;;;;;;5031964;28;20225;-64
2021/07/11 11:59:43;;;;;;;0.00;0.00;;;;;;;;;;5038851;28;20205;-67
2021/07/11 12:02:11;;;;;;;0.00;0.00;;;;;;;;;;5023710;28;20392;-68
2021/07/11 12:04:38;;;;;;;0.10;0.10;;;;;;;;;;5026110;28;20233;-66
2021/07/11 12:07:07;;;;;;;0.00;0.00;;;;;;;;;;5029905;28;20496;-67
2021/07/11 12:09:35;;;;;;;0.00;0.00;;;;;;;;;;5026769;28;20206;-67
2021/07/11 12:12:03;;;;;;;0.00;0.00;;;;;;;;;;5028400;28;20396;-66
2021/07/11 12:14:29;;;;;;;0.00;0.00;;;;;;;;;;5026365;28;20255;-65
2021/07/11 12:16:56;;;;;;;0.00;0.00;;;;;;;;;;5021958;28;20205;-66
2021/07/11 12:19:22;;;;;;;0.00;0.00;;;;;;;;;;5024132;28;20270;-65
2021/07/11 12:21:48;;;;;;;0.00;0.00;;;;;;;;;;5027021;28;20225;-66
2021/07/11 12:24:17;;;;;;;0.00;0.00;;;;;;;;;;5028500;28;20250;-65
2021/07/11 12:26:45;;;;;;;0.00;0.00;;;;;;;;;;5031023;28;20225;-66
2021/07/11 12:29:14;;;;;;;0.00;0.00;;;;;;;;;;5027171;28;20206;-68
2021/07/11 12:31:41;;;;;;;0.00;0.00;;;;;;;;;;5024462;28;20201;-66
2021/07/11 12:34:08;;;;;;;0.00;0.00;;;;;;;;;;5028803;28;20201;-66
2021/07/11 12:36:35;;;;;;;0.00;0.00;;;;;;;;;;5030985;28;20247;-64
2021/07/11 12:39:03;;;;;;;0.00;0.00;;;;;;;;;;5025524;28;20217;-64
2021/07/11 12:41:33;;;;;;;0.00;0.00;;;;;;;;;;5024687;28;20229;-63
2021/07/11 12:44:03;;;;;;;0.00;0.00;;;;;;;;;;5027301;28;20301;-67
2021/07/11 12:46:30;;;;;;;0.00;0.00;;;;;;;;;;5022246;28;20197;-68
2021/07/11 12:48:57;;;;;;;0.00;0.00;;;;;;;;;;5023373;28;20213;-67
2021/07/11 12:51:24;;;;;;;0.00;0.00;;;;;;;;;;5023742;28;20208;-68
2021/07/11 12:53:52;;;;;;;0.00;0.00;;;;;;;;;;5026658;28;20392;-68
2021/07/11 12:56:19;;;;;;;0.05;0.05;;;;;;;;;;5024039;28;20209;-69
2021/07/11 12:58:46;;;;;;;0.00;0.00;;;;;;;;;;5026857;28;20205;-70
2021/07/11 13:01:14;;;;;;;0.00;0.00;;;;;;;;;;5024659;27;20204;-69
2021/07/11 13:03:41;;;;;;;0.00;0.00;;;;;;;;;;5028843;28;20411;-71
2021/07/11 13:06:13;;;;;;;0.00;0.00;;;;;;;;;;5023399;28;20201;-67
2021/07/11 13:08:39;;;;;;;0.00;0.00;;;;;;;;;;5028960;28;20245;-67
2021/07/11 13:11:05;;;;;;;0.00;0.00;;;;;;;;;;5022527;28;20246;-68
2021/07/11 13:13:31;;;;;;;0.00;0.00;;;;;;;;;;5024884;28;20261;-69
2021/07/11 13:15:58;;;;;;;0.00;0.00;;;;;;;;;;5028001;28;20227;-69
2021/07/11 13:18:25;;;;;;;0.10;0.10;;;;;;;;;;5025847;28;20209;-63
2021/07/11 13:20:52;;;;;;;0.00;0.00;;;;;;;;;;5036795;28;20415;-64
2021/07/11 13:23:18;;;;;;;0.03;0.03;;;;;;;;;;5021018;28;20228;-64
2021/07/11 13:25:44;;;;;;;0.00;0.00;;;;;;;;;;5030946;28;20245;-66
2021/07/11 13:28:11;;;;;;;0.00;0.00;;;;;;;;;;5040690;28;20205;-71
2021/07/11 13:30:38;;;;;;;0.00;0.00;;;;;;;;;;5036840;28;20244;-69
2021/07/11 13:33:04;;;;;;;0.00;0.00;;;;;;;;;;5024182;28;20514;-69
2021/07/11 13:35:32;;;;;;;0.00;0.00;;;;;;;;;;5031983;28;20485;-68
2021/07/11 13:37:58;;;;;;;0.00;0.00;;;;;;;;;;5031008;28;20251;-68
2021/07/11 13:40:25;;;;;;;0.00;0.00;;;;;;;;;;5020878;28;20220;-68
2021/07/11 13:42:51;;;;;;;0.00;0.00;;;;;;;;;;5034786;28;20273;-67
2021/07/11 13:45:18;;;;;;;0.00;0.00;;;;;;;;;;5020504;28;20208;-67
2021/07/11 13:47:45;;;;;;;0.00;0.00;;;;;;;;;;5029040;28;20364;-66
2021/07/11 13:50:12;;;;;;;0.00;0.00;;;;;;;;;;5030491;28;20251;-65
2021/07/11 13:52:40;;;;;;;0.00;0.00;;;;;;;;;;5020738;28;20201;-67
2021/07/11 13:55:07;;;;;;;0.00;0.00;;;;;;;;;;5033939;28;20220;-68
2021/07/11 13:57:33;;;;;;;0.00;0.00;;;;;;;;;;5034714;28;20221;-68
2021/07/11 13:59:59;;;;;;;0.00;0.00;;;;;;;;;;5026536;28;20311;-66
2021/07/11 14:02:26;;;;;;;0.00;0.00;;;;;;;;;;5025328;28;20266;-66
2021/07/11 14:04:53;;;;;;;0.00;0.00;;;;;;;;;;5022204;28;20209;-69
2021/07/11 14:07:19;;;;;;;0.00;0.00;;;;;;;;;;5022328;28;20338;-66
2021/07/11 14:09:47;;;;;;;0.00;0.00;;;;;;;;;;5022022;28;20262;-66
2021/07/11 14:12:13;;;;;;;0.00;0.00;;;;;;;;;;5035890;28;20271;-63
2021/07/11 14:14:40;;;;;;;0.00;0.00;;;;;;;;;;5029541;28;20205;-63
2021/07/11 14:17:06;;;;;;;0.00;0.00;;;;;;;;;;5032383;28;20205;-64
2021/07/11 14:19:33;;;;;;;0.00;0.00;;;;;;;;;;5026353;28;20205;-64
2021/07/11 14:21:59;;;;;;;0.00;0.00;;;;;;;;;;5026032;28;20222;-69
2021/07/11 14:24:26;;;;;;;0.00;0.00;;;;;;;;;;5025612;28;20197;-69
2021/07/11 14:26:54;;;;;;;0.00;0.00;;;;;;;;;;5030996;28;20219;-69
2021/07/11 14:29:20;;;;;;;0.00;0.00;;;;;;;;;;5024784;28;20206;-67
2021/07/11 14:31:46;;;;;;;0.00;0.00;;;;;;;;;;5026651;28;20218;-67
2021/07/11 14:34:12;;;;;;;0.00;0.00;;;;;;;;;;5028934;28;20337;-69
2021/07/11 14:36:40;;;;;;;0.00;0.00;;;;;;;;;;5021323;28;20213;-68
2021/07/11 14:39:07;;;;;;;0.00;0.00;;;;;;;;;;5020025;28;20206;-68
2021/07/11 14:41:33;;;;;;;0.00;0.00;;;;;;;;;;5035571;28;20201;-67
2021/07/11 14:44:01;;;;;;;0.00;0.00;;;;;;;;;;5024764;28;20205;-68